San Francisco, Colorado
Current Conditions -  °F | °C
As of 6:52 AM on Wednesday 28 Jan 2015 (Local Time) from KALS Reporting Station
Clear Clear  
Wind Chill:   Ceiling: Unl
Heat Index: 15°   Visibility: 10mi
Dew Point: 11°   Wind: 5mph
Humidity: 84%   Direction: 250°WSW
Pressure: 30.25"   Gusts: NA
Location:  37.1568°N, 105.289°W
Report Text: KALS 281352Z AUTO 25004KT 10SM CLR M09/M12 A3025 RMK AO2 SLP274 T10941117
Loading
Personal Weather Stations






























Interactive Weather Map New forecast layout! Learn more

10-Day Weather Forecast

Advertisements
Track Severe Weather on mobile